Time;durP1;ratioP1;P1;durP2;ratioP2;P2;SDS_P1;SDS_P2;PMS_P1;PMS_P2;Temp;Humidity;BMP_temperature;BMP_pressure;BME280_temperature;BME280_humidity;BME280_pressure;Samples;Min_cycle;Max_cycle;Signal;HPM_P1;HPM_P2
2022/03/04 00:01:11;;;;;;;;;;;;;;;21.07;38.88;101761.31;5074486;28;5432;-54
2022/03/04 00:03:38;;;;;;;;;;;;;;;21.06;38.90;101749.03;5073084;28;4020;-49
2022/03/04 00:06:05;;;;;;;;;;;;;;;21.06;39.08;101748.31;5075353;28;4237;-53
2022/03/04 00:08:31;;;;;;;;;;;;;;;21.07;39.07;101761.31;5074574;28;4475;-50
2022/03/04 00:10:58;;;;;;;;;;;;;;;21.07;39.19;101767.84;5075520;28;4163;-48
2022/03/04 00:13:31;;;;;;;;;;;;;;;21.06;39.10;101777.09;5070858;28;4040;-52
2022/03/04 00:15:57;;;;;;;;;;;;;;;21.06;39.00;101777.09;5071018;28;5257;-48
2022/03/04 00:18:24;;;;;;;;;;;;;;;21.06;38.88;101779.97;5075998;28;4112;-49
2022/03/04 00:20:50;;;;;;;;;;;;;;;21.04;38.99;101780.59;5072308;28;4242;-53
2022/03/04 00:23:17;;;;;;;;;;;;;;;21.04;39.14;101776.97;5077897;28;5795;-51
2022/03/04 00:25:43;;;;;;;;;;;;;;;21.04;38.92;101785.63;5055313;28;3987;-52
2022/03/04 00:28:10;;;;;;;;;;;;;;;21.05;38.97;101781.34;5073445;28;5260;-49
2022/03/04 00:30:36;;;;;;;;;;;;;;;21.06;39.08;101777.09;5056924;28;4233;-49
2022/03/04 00:33:02;;;;;;;;;;;;;;;21.04;39.09;101776.97;5075493;28;5211;-50
2022/03/04 00:35:29;;;;;;;;;;;;;;;21.05;39.23;101775.56;5074858;28;4059;-53
2022/03/04 00:37:55;;;;;;;;;;;;;;;21.04;39.24;101774.09;5074629;28;5256;-48
2022/03/04 00:40:21;;;;;;;;;;;;;;;21.04;38.96;101771.22;5074066;28;4173;-51
2022/03/04 00:42:48;;;;;;;;;;;;;;;21.05;39.23;101769.81;5074898;28;4058;-49
2022/03/04 00:45:14;;;;;;;;;;;;;;;21.03;39.25;101772.59;5075459;28;4146;-50
2022/03/04 00:47:41;;;;;;;;;;;;;;;21.04;39.05;101774.84;5071089;28;4171;-53
2022/03/04 00:50:08;;;;;;;;;;;;;;;21.04;39.14;101774.09;5070535;28;4298;-52
2022/03/04 00:52:34;;;;;;;;;;;;;;;21.04;38.98;101776.97;5074306;28;4119;-52
2022/03/04 00:55:00;;;;;;;;;;;;;;;21.03;38.91;101787.75;5076848;28;6418;-48
2022/03/04 00:57:27;;;;;;;;;;;;;;;21.03;39.16;101789.88;5074366;28;4312;-50
2022/03/04 00:59:53;;;;;;;;;;;;;;;21.04;38.91;101779.84;5073774;28;4119;-49
2022/03/04 01:02:19;;;;;;;;;;;;;;;21.03;39.05;101795.66;5074482;28;4423;-50
2022/03/04 01:04:46;;;;;;;;;;;;;;;21.03;39.09;101789.88;5076094;28;5285;-49
2022/03/04 01:07:12;;;;;;;;;;;;;;;21.03;39.26;101790.63;5075364;28;4310;-49
2022/03/04 01:09:39;;;;;;;;;;;;;;;21.03;39.12;101784.13;5073356;28;4417;-49
2022/03/04 01:12:05;;;;;;;;;;;;;;;21.03;38.92;101787.75;5074661;28;4145;-51
2022/03/04 01:14:32;;;;;;;;;;;;;;;21.03;39.15;101784.13;5078673;28;4098;-50
2022/03/04 01:16:58;;;;;;;;;;;;;;;21.03;39.10;101784.13;5076249;28;5250;-49
2022/03/04 01:19:24;;;;;;;;;;;;;;;21.02;39.13;101788.38;5077782;28;4195;-52
2022/03/04 01:21:51;;;;;;;;;;;;;;;21.02;39.04;101788.38;5079345;28;3981;-48
2022/03/04 01:24:17;;;;;;;;;;;;;;;21.03;39.03;101779.13;5079290;28;4476;-53
2022/03/04 01:26:44;;;;;;;;;;;;;;;21.01;39.10;101793.38;5079409;28;5085;-50
2022/03/04 01:29:10;;;;;;;;;;;;;;;21.03;39.20;101789.88;5074091;28;4195;-53
2022/03/04 01:31:36;;;;;;;;;;;;;;;21.03;39.19;101784.88;5078038;28;4109;-52
2022/03/04 01:34:03;;;;;;;;;;;;;;;21.04;39.13;101785.63;5075163;28;5297;-50
2022/03/04 01:36:33;;;;;;;;;;;;;;;21.02;39.35;101788.38;5077649;28;4034;-51
2022/03/04 01:39:00;;;;;;;;;;;;;;;21.02;39.18;101794.13;5075404;28;4346;-49
2022/03/04 01:41:26;;;;;;;;;;;;;;;21.01;39.20;101795.53;5077981;28;4097;-50
2022/03/04 01:43:52;;;;;;;;;;;;;;;21.00;39.30;101791.88;5078837;28;4230;-53
2022/03/04 01:46:26;;;;;;;;;;;;;;;21.01;39.11;101786.88;5079484;28;4220;-51
2022/03/04 01:48:52;;;;;;;;;;;;;;;21.00;39.21;101780.34;5076124;28;4160;-53
2022/03/04 01:51:18;;;;;;;;;;;;;;;21.00;39.03;101780.34;5076088;28;4316;-53
2022/03/04 01:53:45;;;;;;;;;;;;;;;21.01;38.94;101781.13;5077202;28;5698;-50
2022/03/04 01:56:11;;;;;;;;;;;;;;;21.01;39.00;101784.00;5076799;28;5250;-49
2022/03/04 01:58:38;;;;;;;;;;;;;;;21.01;39.00;101781.88;5076817;28;4181;-54
2022/03/04 02:01:04;;;;;;;;;;;;;;;21.01;38.97;101784.75;5075130;28;4203;-52
2022/03/04 02:03:31;;;;;;;;;;;;;;;21.01;39.12;101787.63;5075109;28;4236;-53
2022/03/04 02:05:58;;;;;;;;;;;;;;;21.03;39.23;101787.00;5075587;28;4228;-51
2022/03/04 02:08:24;;;;;;;;;;;;;;;21.00;39.27;101791.88;5078305;28;5225;-51
2022/03/04 02:10:50;;;;;;;;;;;;;;;21.01;39.04;101775.38;5076707;28;5238;-54
2022/03/04 02:13:17;;;;;;;;;;;;;;;21.01;39.23;101775.38;5079149;28;4239;-54
2022/03/04 02:15:43;;;;;;;;;;;;;;;21.01;39.14;101769.59;5073608;28;4242;-53
2022/03/04 02:18:11;;;;;;;;;;;;;;;21.01;39.22;101775.38;5073709;28;4245;-52
2022/03/04 02:20:38;;;;;;;;;;;;;;;21.00;38.96;101774.59;5075499;28;3992;-53
2022/03/04 02:23:04;;;;;;;;;;;;;;;21.00;39.01;101773.84;5072072;28;4500;-52
2022/03/04 02:25:30;;;;;;;;;;;;;;;20.99;39.03;101773.09;5075112;28;4150;-49
2022/03/04 02:27:57;;;;;;;;;;;;;;;21.01;39.04;101772.50;5073821;28;5209;-53
2022/03/04 02:30:23;;;;;;;;;;;;;;;21.00;38.98;101770.97;5071227;28;5249;-52
2022/03/04 02:32:49;;;;;;;;;;;;;;;21.00;39.18;101780.34;5073367;28;4179;-52
2022/03/04 02:35:16;;;;;;;;;;;;;;;21.01;39.28;101781.13;5077870;28;4110;-47
2022/03/04 02:37:42;;;;;;;;;;;;;;;21.01;39.23;101781.13;5072725;28;3988;-48
2022/03/04 02:40:09;;;;;;;;;;;;;;;21.00;39.20;101779.63;5073257;28;4148;-49
2022/03/04 02:42:35;;;;;;;;;;;;;;;20.99;39.07;101784.63;5073284;28;4111;-49
2022/03/04 02:45:02;;;;;;;;;;;;;;;20.99;39.27;101789.66;5073749;28;4164;-53
2022/03/04 02:47:28;;;;;;;;;;;;;;;20.99;39.31;101783.88;5074314;28;4233;-49
2022/03/04 02:49:54;;;;;;;;;;;;;;;20.97;39.35;101790.25;5076319;28;4219;-50
2022/03/04 02:52:21;;;;;;;;;;;;;;;20.97;39.20;101798.16;5074644;28;4567;-51
2022/03/04 02:54:47;;;;;;;;;;;;;;;20.98;39.08;101793.88;5076953;28;5318;-52
2022/03/04 02:57:13;;;;;;;;;;;;;;;20.99;39.20;101795.41;5073022;28;4127;-50
2022/03/04 02:59:40;;;;;;;;;;;;;;;20.99;39.31;101796.16;5077247;28;4207;-48
2022/03/04 03:02:06;;;;;;;;;;;;;;;20.98;39.58;101793.88;5076928;28;4308;-52
2022/03/04 03:04:33;;;;;;;;;;;;;;;20.99;39.31;101795.41;5075623;28;4550;-49
2022/03/04 03:06:59;;;;;;;;;;;;;;;20.99;39.40;101798.28;5075847;28;4225;-51
2022/03/04 03:09:26;;;;;;;;;;;;;;;21.00;39.50;101796.88;5078583;28;4653;-48
2022/03/04 03:11:52;;;;;;;;;;;;;;;21.00;39.18;101791.13;5075675;28;4272;-54
2022/03/04 03:14:18;;;;;;;;;;;;;;;20.99;39.37;101784.63;5077889;28;4114;-53
2022/03/04 03:16:45;;;;;;;;;;;;;;;20.99;39.24;101790.38;5076252;28;5489;-53
2022/03/04 03:19:11;;;;;;;;;;;;;;;20.99;39.22;101798.28;5077217;28;4152;-53
2022/03/04 03:21:38;;;;;;;;;;;;;;;20.98;39.32;101794.66;5078491;28;4260;-54
2022/03/04 03:24:04;;;;;;;;;;;;;;;20.98;39.29;101797.53;5075956;28;4313;-54
2022/03/04 03:26:30;;;;;;;;;;;;;;;20.99;39.30;101798.28;5075293;28;4160;-53
2022/03/04 03:28:57;;;;;;;;;;;;;;;20.99;39.26;101798.28;5074231;28;4257;-54
2022/03/04 03:31:23;;;;;;;;;;;;;;;20.99;39.45;101796.16;5076162;28;4530;-52
2022/03/04 03:33:50;;;;;;;;;;;;;;;20.99;39.44;101799.03;5075641;28;4192;-49
2022/03/04 03:36:17;;;;;;;;;;;;;;;20.99;39.37;101798.28;5076311;28;4142;-50
2022/03/04 03:38:43;;;;;;;;;;;;;;;20.98;39.24;101791.78;5076812;28;4383;-51
2022/03/04 03:41:10;;;;;;;;;;;;;;;20.98;39.37;101785.25;5074440;28;4102;-48
2022/03/04 03:43:39;;;;;;;;;;;;;;;20.98;39.37;101788.13;5074922;28;4111;-50
2022/03/04 03:46:05;;;;;;;;;;;;;;;20.97;39.33;101786.63;5075312;28;4034;-52
2022/03/04 03:48:32;;;;;;;;;;;;;;;20.98;39.34;101793.88;5077659;28;4246;-51
2022/03/04 03:51:00;;;;;;;;;;;;;;;20.98;39.24;101782.38;5074426;28;4162;-54
2022/03/04 03:53:26;;;;;;;;;;;;;;;20.99;39.35;101778.13;5075559;28;3929;-51
2022/03/04 03:55:52;;;;;;;;;;;;;;;20.98;39.47;101783.16;5077570;28;4201;-50
2022/03/04 03:58:19;;;;;;;;;;;;;;;20.98;39.56;101791.00;5076199;28;4166;-51
2022/03/04 04:00:45;;;;;;;;;;;;;;;21.00;39.59;101796.88;5077331;28;4048;-51
2022/03/04 04:03:11;;;;;;;;;;;;;;;21.00;39.30;101788.25;5074767;28;4105;-51
2022/03/04 04:05:38;;;;;;;;;;;;;;;21.00;39.40;101785.38;5075260;28;4153;-49
2022/03/04 04:08:05;;;;;;;;;;;;;;;21.01;39.44;101789.75;5076139;28;4126;-52
2022/03/04 04:10:31;;;;;;;;;;;;;;;21.00;39.48;101796.88;5076664;28;4197;-49
2022/03/04 04:12:58;;;;;;;;;;;;;;;21.00;39.54;101789.00;5069731;28;5214;-52
2022/03/04 04:15:24;;;;;;;;;;;;;;;21.00;39.47;101785.38;5077153;28;4173;-50
2022/03/04 04:17:50;;;;;;;;;;;;;;;20.99;39.55;101789.66;5074834;28;5229;-53
2022/03/04 04:20:17;;;;;;;;;;;;;;;20.99;39.48;101784.63;5075109;28;4069;-49
2022/03/04 04:22:43;;;;;;;;;;;;;;;21.00;39.47;101791.13;5070328;28;4163;-49
2022/03/04 04:25:09;;;;;;;;;;;;;;;20.98;39.42;101800.41;5076080;28;4486;-49
2022/03/04 04:27:36;;;;;;;;;;;;;;;20.99;39.34;101806.91;5074382;28;4301;-53
2022/03/04 04:30:03;;;;;;;;;;;;;;;20.99;39.37;101798.28;5074880;28;4189;-52
2022/03/04 04:32:29;;;;;;;;;;;;;;;20.98;39.49;101796.78;5075584;28;4619;-53
2022/03/04 04:34:55;;;;;;;;;;;;;;;20.98;39.44;101785.25;5075354;28;4229;-52
2022/03/04 04:37:22;;;;;;;;;;;;;;;20.98;39.36;101791.00;5076635;28;6932;-49
2022/03/04 04:39:48;;;;;;;;;;;;;;;20.98;39.56;101791.00;5074349;28;5301;-52
2022/03/04 04:42:14;;;;;;;;;;;;;;;20.97;39.46;101780.88;5073315;28;4360;-53
2022/03/04 04:44:41;;;;;;;;;;;;;;;20.96;39.36;101785.91;5072907;28;4302;-52
2022/03/04 04:47:07;;;;;;;;;;;;;;;20.95;39.46;101784.38;5076691;28;4253;-53
2022/03/04 04:49:37;;;;;;;;;;;;;;;20.97;39.35;101787.38;5077908;28;4189;-51
2022/03/04 04:52:04;;;;;;;;;;;;;;;20.98;39.47;101793.88;5078895;28;4247;-49
2022/03/04 04:54:30;;;;;;;;;;;;;;;20.98;39.48;101782.38;5080729;28;4494;-52
2022/03/04 04:56:57;;;;;;;;;;;;;;;20.98;39.50;101783.16;5080100;28;4218;-52
2022/03/04 04:59:23;;;;;;;;;;;;;;;20.99;39.41;101784.63;5077226;28;4391;-52
2022/03/04 05:01:49;;;;;;;;;;;;;;;21.00;39.40;101791.88;5075619;28;4485;-50
2022/03/04 05:04:17;;;;;;;;;;;;;;;21.02;39.48;101788.38;5080006;28;5645;-52
2022/03/04 05:06:43;;;;;;;;;;;;;;;21.01;39.57;101792.66;5076237;28;5314;-50
2022/03/04 05:09:09;;;;;;;;;;;;;;;21.00;39.44;101796.88;5073284;28;6572;-52
2022/03/04 05:11:36;;;;;;;;;;;;;;;21.02;39.39;101799.91;5076447;28;4232;-51
2022/03/04 05:14:02;;;;;;;;;;;;;;;20.91;39.58;101802.19;5075550;28;5474;-52
2022/03/04 05:16:28;;;;;;;;;;;;;;;20.99;39.56;101795.41;5078763;28;4030;-51
2022/03/04 05:18:55;;;;;;;;;;;;;;;21.00;39.46;101799.78;5081268;28;4483;-53
2022/03/04 05:21:21;;;;;;;;;;;;;;;20.99;39.40;101795.41;5076954;28;4143;-51
2022/03/04 05:23:59;;;;;;;;;;;;;;;21.01;39.20;101789.75;5074520;28;4528;-52
2022/03/04 05:26:30;;;;;;;;;;;;;;;21.01;39.38;101804.91;5076333;28;3976;-49
2022/03/04 05:28:57;;;;;;;;;;;;;;;21.00;39.29;101797.63;5077670;28;4941;-51
2022/03/04 05:31:23;;;;;;;;;;;;;;;21.00;39.24;101803.38;5076078;28;5271;-48
2022/03/04 05:33:50;;;;;;;;;;;;;;;21.00;39.47;101817.03;5076228;28;5243;-52
2022/03/04 05:36:17;;;;;;;;;;;;;;;21.01;39.33;101821.44;5076411;28;4346;-50
2022/03/04 05:38:43;;;;;;;;;;;;;;;21.00;39.18;101819.94;5079973;28;5504;-49
2022/03/04 05:41:10;;;;;;;;;;;;;;;21.01;39.27;101827.19;5077942;28;6277;-51
2022/03/04 05:43:37;;;;;;;;;;;;;;;21.00;39.24;101825.69;5074191;28;3984;-57
2022/03/04 05:46:04;;;;;;;;;;;;;;;21.03;39.49;101821.56;5081026;28;4194;-56
2022/03/04 05:48:30;;;;;;;;;;;;;;;21.01;39.61;101821.44;5076873;28;3968;-67
2022/03/04 05:50:57;;;;;;;;;;;;;;;21.01;39.68;101827.19;5078365;28;4177;-72
2022/03/04 05:53:23;;;;;;;;;;;;;;;21.04;39.58;101826.66;5077362;28;4335;-70
2022/03/04 05:55:50;;;;;;;;;;;;;;;21.05;39.83;101821.66;5078124;28;4909;-71
2022/03/04 05:58:16;;;;;;;;;;;;;;;21.04;39.73;101823.78;5079065;28;4028;-72
2022/03/04 06:00:43;;;;;;;;;;;;;;;21.05;39.58;101818.78;5079979;28;4393;-71
2022/03/04 06:03:09;;;;;;;;;;;;;;;21.06;40.23;101829.69;5079305;28;4038;-71
2022/03/04 06:05:35;;;;;;;;;;;;;;;21.08;40.62;101824.03;5076578;28;4138;-68
2022/03/04 06:08:02;;;;;;;;;;;;;;;21.09;40.45;101839.19;5078299;28;4182;-67
2022/03/04 06:10:28;;;;;;;;;;;;;;;21.13;40.43;101850.94;5080028;28;5325;-71
2022/03/04 06:12:55;;;;;;;;;;;;;;;21.26;40.88;101838.03;5074868;28;4325;-65
2022/03/04 06:15:21;;;;;;;;;;;;;;;21.19;40.71;101844.78;5075920;28;4224;-67
2022/03/04 06:17:48;;;;;;;;;;;;;;;21.01;41.00;101841.59;5078145;28;4236;-67
2022/03/04 06:20:14;;;;;;;;;;;;;;;20.08;38.39;101846.72;5073376;28;4211;-66
2022/03/04 06:22:41;;;;;;;;;;;;;;;20.47;38.09;101846.25;5076340;28;4039;-66
2022/03/04 06:25:07;;;;;;;;;;;;;;;20.71;38.36;101849.91;5075355;28;5143;-66
2022/03/04 06:27:34;;;;;;;;;;;;;;;20.78;38.76;101857.53;5078226;28;4032;-66
2022/03/04 06:30:00;;;;;;;;;;;;;;;20.57;39.34;101860.53;5078894;28;4374;-66
2022/03/04 06:32:26;;;;;;;;;;;;;;;20.45;39.71;101849.75;5077238;28;4155;-66
2022/03/04 06:34:53;;;;;;;;;;;;;;;20.77;39.44;101861.78;5075592;28;5516;-66
2022/03/04 06:37:19;;;;;;;;;;;;;;;20.81;39.24;101849.75;5077331;28;4097;-66
2022/03/04 06:39:46;;;;;;;;;;;;;;;20.87;39.61;101859.53;5077067;28;4023;-66
2022/03/04 06:42:12;;;;;;;;;;;;;;;20.86;40.32;101858.00;5076616;28;4350;-66
2022/03/04 06:44:39;;;;;;;;;;;;;;;20.20;40.52;101852.50;5075505;28;4052;-67
2022/03/04 06:47:05;;;;;;;;;;;;;;;20.08;40.56;101858.22;5075558;28;4976;-65
2022/03/04 06:52:33;;;;;;;;;;;;;;;16.66;38.64;101872.25;5058140;28;6239;-69
2022/03/04 06:54:59;;;;;;;;;;;;;;;15.79;40.77;101869.69;5075040;28;5550;-68
2022/03/04 06:57:25;;;;;;;;;;;;;;;16.42;37.47;101864.63;5077076;28;4370;-70
2022/03/04 06:59:52;;;;;;;;;;;;;;;17.43;36.92;101867.28;5076683;28;4065;-68
2022/03/04 07:02:18;;;;;;;;;;;;;;;18.23;36.97;101884.53;5075047;28;4651;-67
2022/03/04 07:04:49;;;;;;;;;;;;;;;18.99;36.78;101884.84;5076048;28;4201;-69
2022/03/04 07:07:15;;;;;;;;;;;;;;;19.31;36.58;101882.66;5077600;28;4127;-69
2022/03/04 07:09:41;;;;;;;;;;;;;;;19.52;36.52;101885.53;5075063;28;4485;-69
2022/03/04 07:12:07;;;;;;;;;;;;;;;19.49;36.45;101881.00;5074055;28;4458;-65
2022/03/04 07:14:36;;;;;;;;;;;;;;;19.51;36.63;101884.00;5076218;28;5633;-65
2022/03/04 07:17:02;;;;;;;;;;;;;;;19.60;36.74;101883.16;5076563;28;5636;-65
2022/03/04 07:19:28;;;;;;;;;;;;;;;19.62;36.74;101883.31;5078240;28;4596;-70
2022/03/04 07:21:55;;;;;;;;;;;;;;;19.66;36.76;101877.09;5077284;28;4567;-70
2022/03/04 07:24:21;;;;;;;;;;;;;;;19.64;37.07;101876.94;5077211;28;4185;-69
2022/03/04 07:26:47;;;;;;;;;;;;;;;19.75;37.27;101884.16;5077710;28;4231;-66
2022/03/04 07:29:18;;;;;;;;;;;;;;;19.98;37.02;101880.59;5076533;28;4412;-66
2022/03/04 07:31:44;;;;;;;;;;;;;;;19.99;37.11;101882.09;5074264;28;4785;-64
2022/03/04 07:34:10;;;;;;;;;;;;;;;20.04;37.43;101887.50;5075870;28;4390;-66
2022/03/04 07:36:37;;;;;;;;;;;;;;;20.11;37.49;101896.47;5076245;28;3978;-67
2022/03/04 07:39:03;;;;;;;;;;;;;;;20.11;37.93;101896.47;5073160;28;4593;-66
2022/03/04 07:41:29;;;;;;;;;;;;;;;20.14;38.03;101889.50;5074615;28;4676;-67
2022/03/04 07:43:56;;;;;;;;;;;;;;;19.97;37.67;101893.44;5073610;28;5256;-66
2022/03/04 07:46:22;;;;;;;;;;;;;;;19.82;37.96;101889.66;5076635;28;4552;-66
2022/03/04 07:48:49;;;;;;;;;;;;;;;19.89;37.71;101899.44;5073835;28;5572;-67
2022/03/04 07:51:15;;;;;;;;;;;;;;;19.96;37.66;101895.56;5076291;28;4049;-64
2022/03/04 07:53:41;;;;;;;;;;;;;;;20.00;38.08;101900.84;5074398;28;4649;-66
2022/03/04 07:56:08;;;;;;;;;;;;;;;20.02;38.44;101901.72;5074315;28;4352;-64
2022/03/04 07:58:35;;;;;;;;;;;;;;;20.04;38.38;101899.00;5074961;28;5784;-64
2022/03/04 08:01:02;;;;;;;;;;;;;;;20.07;38.57;101903.50;5075465;28;5160;-64
2022/03/04 08:03:46;;;;;;;;;;;;;;;20.07;38.47;101906.38;5075309;28;4403;-64
2022/03/04 08:06:13;;;;;;;;;;;;;;;20.07;38.68;101915.00;5074957;28;4620;-64
2022/03/04 08:08:40;;;;;;;;;;;;;;;20.09;38.79;101917.25;5075279;28;4545;-65
2022/03/04 08:11:06;;;;;;;;;;;;;;;20.08;38.75;101915.72;5075074;28;4140;-64
2022/03/04 08:13:34;;;;;;;;;;;;;;;20.07;39.07;101915.00;5072442;28;4533;-64
2022/03/04 08:16:00;;;;;;;;;;;;;;;20.11;39.04;101917.34;5075999;28;4511;-64
2022/03/04 08:18:28;;;;;;;;;;;;;;;20.12;39.13;101921.00;5075518;28;4126;-67
2022/03/04 08:20:54;;;;;;;;;;;;;;;20.13;39.20;101916.75;5076606;28;4612;-67
2022/03/04 08:23:21;;;;;;;;;;;;;;;20.15;39.31;101925.50;5077103;28;4144;-66
2022/03/04 08:25:49;;;;;;;;;;;;;;;20.17;39.18;101928.50;5077669;28;4658;-69
2022/03/04 08:28:16;;;;;;;;;;;;;;;20.18;39.45;101925.03;5079019;28;4213;-64
2022/03/04 08:30:42;;;;;;;;;;;;;;;20.21;39.33;101925.91;5078731;28;4046;-64
2022/03/04 08:33:09;;;;;;;;;;;;;;;20.20;39.37;101930.13;5074420;28;4627;-68
2022/03/04 08:35:36;;;;;;;;;;;;;;;18.04;36.02;101931.22;5075836;28;5310;-64
2022/03/04 08:38:02;;;;;;;;;;;;;;;18.33;36.93;101942.63;5074452;28;4575;-64
2022/03/04 08:40:28;;;;;;;;;;;;;;;19.25;36.76;101938.31;5079649;28;4596;-68
2022/03/04 08:42:55;;;;;;;;;;;;;;;19.76;36.16;101932.38;5079020;28;4714;-67
2022/03/04 08:45:22;;;;;;;;;;;;;;;20.01;36.85;101943.34;5078087;28;4047;-69
2022/03/04 08:47:48;;;;;;;;;;;;;;;20.14;37.76;101929.75;5079992;28;4331;-68
2022/03/04 08:50:15;;;;;;;;;;;;;;;20.19;38.10;101937.28;5079266;28;4486;-64
2022/03/04 08:52:41;;;;;;;;;;;;;;;20.15;37.54;101940.63;5075218;28;4615;-65
2022/03/04 08:55:13;;;;;;;;;;;;;;;20.06;37.33;101945.09;5076681;28;4175;-63
2022/03/04 08:57:43;;;;;;;;;;;;;;;20.18;38.22;101953.78;5063221;28;4052;-69
2022/03/04 09:00:10;;;;;;;;;;;;;;;20.20;37.94;101945.28;5079636;28;4775;-69
2022/03/04 09:02:36;;;;;;;;;;;;;;;20.20;37.91;101953.91;5078816;28;5242;-67
2022/03/04 09:05:03;;;;;;;;;;;;;;;20.07;37.75;101943.00;5078370;28;4015;-69
2022/03/04 09:07:32;;;;;;;;;;;;;;;20.24;37.90;101944.78;5078103;28;4351;-72
2022/03/04 09:10:02;;;;;;;;;;;;;;;20.32;38.21;101948.19;5075471;28;4380;-69
2022/03/04 09:12:28;;;;;;;;;;;;;;;20.33;38.26;101955.44;5071677;28;4911;-67
2022/03/04 09:14:54;;;;;;;;;;;;;;;20.28;38.95;101945.06;5077686;28;5965;-70
2022/03/04 09:17:22;;;;;;;;;;;;;;;20.31;38.83;101946.66;5079382;28;4427;-73
2022/03/04 09:19:48;;;;;;;;;;;;;;;20.26;38.98;101959.28;5077920;28;4399;-63
2022/03/04 09:22:22;;;;;;;;;;;;;;;20.51;39.02;101950.84;5076456;28;5125;-65
2022/03/04 09:24:49;;;;;;;;;;;;;;;20.58;39.02;101943.38;5078270;28;5447;-66
2022/03/04 09:27:15;;;;;;;;;;;;;;;20.56;39.18;101949.00;5079310;28;4063;-66
2022/03/04 09:29:41;;;;;;;;;;;;;;;20.54;38.93;101948.09;5076675;28;4925;-65
2022/03/04 09:32:08;;;;;;;;;;;;;;;20.60;39.17;101948.50;5067928;28;4545;-62
2022/03/04 09:34:35;;;;;;;;;;;;;;;20.61;39.13;101944.25;5042729;28;4221;-67
2022/03/04 09:37:01;;;;;;;;;;;;;;;20.58;39.09;101942.63;5039359;28;4137;-67
2022/03/04 09:39:28;;;;;;;;;;;;;;;20.52;39.49;101945.81;5042175;28;4392;-65
2022/03/04 09:41:54;;;;;;;;;;;;;;;20.55;39.40;101943.81;5042222;28;4238;-60
2022/03/04 09:44:20;;;;;;;;;;;;;;;20.48;38.53;101946.34;5054163;28;4271;-61
2022/03/04 09:46:47;;;;;;;;;;;;;;;20.47;39.07;101935.44;5078890;28;4126;-66
2022/03/04 09:49:15;;;;;;;;;;;;;;;20.41;39.22;101937.94;5074354;28;4247;-64
2022/03/04 09:51:41;;;;;;;;;;;;;;;20.40;39.38;101945.81;5078426;28;4111;-65
2022/03/04 09:54:07;;;;;;;;;;;;;;;20.41;39.48;101940.81;5078221;28;5293;-66
2022/03/04 09:56:34;;;;;;;;;;;;;;;20.41;39.51;101941.59;5079021;28;5454;-66
2022/03/04 09:59:00;;;;;;;;;;;;;;;20.41;39.34;101935.81;5060886;28;5198;-65
2022/03/04 10:01:26;;;;;;;;;;;;;;;20.42;39.40;101939.44;5079120;28;4060;-66
2022/03/04 10:03:54;;;;;;;;;;;;;;;20.41;39.44;101935.81;5077407;28;4230;-65
2022/03/04 10:06:20;;;;;;;;;;;;;;;20.41;39.44;101930.06;5079338;28;3973;-66
2022/03/04 10:08:50;;;;;;;;;;;;;;;20.43;39.53;101924.44;5078481;28;5138;-66
2022/03/04 10:11:30;;;;;;;;;;;;;;;20.44;39.41;101939.59;5079151;28;4115;-66
2022/03/04 10:13:59;;;;;;;;;;;;;;;20.44;39.48;101928.81;5075847;28;4684;-67
2022/03/04 10:16:28;;;;;;;;;;;;;;;20.44;39.36;101940.31;5076704;28;4111;-66
2022/03/04 10:19:11;;;;;;;;;;;;;;;20.43;39.22;101935.97;5078768;28;4061;-69
2022/03/04 10:21:47;;;;;;;;;;;;;;;20.36;39.23;101934.03;5078191;28;4156;-67
2022/03/04 10:24:13;;;;;;;;;;;;;;;20.37;39.15;101935.56;5076224;28;4479;-67
2022/03/04 10:26:39;;;;;;;;;;;;;;;20.40;39.28;101931.44;5077975;28;4157;-67
2022/03/04 10:29:16;;;;;;;;;;;;;;;20.42;39.32;101937.31;5078409;28;4545;-66
2022/03/04 10:31:52;;;;;;;;;;;;;;;20.41;39.17;101941.59;5077911;28;4193;-67
2022/03/04 10:34:49;;;;;;;;;;;;;;;20.41;39.13;101941.59;5062815;28;4239;-66
2022/03/04 10:37:34;;;;;;;;;;;;;;;20.43;39.54;101947.47;5078252;28;4051;-66
2022/03/04 10:40:03;;;;;;;;;;;;;;;20.44;39.35;101933.81;5077923;28;5547;-66
2022/03/04 10:42:40;;;;;;;;;;;;;;;20.46;39.42;101934.69;5077046;28;3943;-66
2022/03/04 10:45:07;;;;;;;;;;;;;;;20.70;39.15;101943.38;5077597;28;5394;-66
2022/03/04 10:47:44;;;;;;;;;;;;;;;20.79;38.97;101945.38;5080828;28;4158;-68
2022/03/04 10:50:11;;;;;;;;;;;;;;;20.80;39.09;101944.03;5082105;28;4208;-63
2022/03/04 10:52:51;;;;;;;;;;;;;;;20.94;39.14;101944.16;5079615;28;4229;-69
2022/03/04 10:55:27;;;;;;;;;;;;;;;21.00;39.39;101943.75;5081270;28;5175;-74
2022/03/04 10:57:54;;;;;;;;;;;;;;;21.07;39.53;101939.84;5085057;28;4325;-77
2022/03/04 11:00:23;;;;;;;;;;;;;;;21.11;39.84;101945.88;5081733;28;5725;-75
2022/03/04 11:02:50;;;;;;;;;;;;;;;21.15;39.82;101951.13;5082320;28;4295;-77
2022/03/04 11:05:17;;;;;;;;;;;;;;;21.16;39.76;101947.59;5078148;28;3968;-74
2022/03/04 11:07:43;;;;;;;;;;;;;;;21.19;39.78;101954.25;5062772;28;4165;-76
2022/03/04 11:10:10;;;;;;;;;;;;;;;21.21;39.92;101957.25;5066754;28;4334;-79
2022/03/04 11:12:36;;;;;;;;;;;;;;;21.23;39.70;101957.38;5062727;28;4253;-78
2022/03/04 11:15:02;;;;;;;;;;;;;;;21.22;39.72;101945.09;5078365;28;4145;-73
2022/03/04 11:17:29;;;;;;;;;;;;;;;21.25;39.57;101949.59;5078130;28;3973;-68
2022/03/04 11:19:56;;;;;;;;;;;;;;;21.30;39.63;101953.47;5077656;28;4331;-69
2022/03/04 11:22:22;;;;;;;;;;;;;;;21.32;39.53;101951.47;5077375;28;4046;-69
2022/03/04 11:24:49;;;;;;;;;;;;;;;21.40;39.85;101953.34;5079798;28;4229;-70
2022/03/04 11:27:15;;;;;;;;;;;;;;;21.37;39.84;101954.59;5077416;28;4276;-68
2022/03/04 11:29:43;;;;;;;;;;;;;;;21.34;40.01;101951.59;5077810;28;4523;-66
2022/03/04 11:32:09;;;;;;;;;;;;;;;21.37;39.83;101948.81;5077525;28;4472;-67
2022/03/04 11:34:40;;;;;;;;;;;;;;;21.41;39.98;101951.97;5078081;28;4150;-69
2022/03/04 11:37:14;;;;;;;;;;;;;;;21.49;39.87;101955.38;5078146;28;4150;-68
2022/03/04 11:40:00;;;;;;;;;;;;;;;21.50;39.76;101956.84;5076283;28;4107;-67
2022/03/04 11:42:27;;;;;;;;;;;;;;;21.50;39.65;101948.19;5076751;28;4057;-68
2022/03/04 11:44:54;;;;;;;;;;;;;;;21.37;39.54;101948.81;5058504;28;5177;-72
2022/03/04 11:47:20;;;;;;;;;;;;;;;21.38;39.69;101959.00;5077841;28;4161;-72
2022/03/04 11:49:47;;;;;;;;;;;;;;;21.36;39.88;101950.97;5075864;28;4054;-71
2022/03/04 11:52:21;;;;;;;;;;;;;;;21.39;39.93;101946.81;5075874;28;4168;-70
2022/03/04 11:54:53;;;;;;;;;;;;;;;21.43;39.91;101955.00;5077928;28;4467;-73
2022/03/04 11:57:27;;;;;;;;;;;;;;;21.43;39.87;101946.34;5077338;28;4114;-72
2022/03/04 11:59:59;;;;;;;;;;;;;;;21.45;40.05;101946.47;5075382;28;4081;-70
2022/03/04 12:02:25;;;;;;;;;;;;;;;21.46;40.08;101953.72;5077545;28;4274;-70
2022/03/04 12:05:11;;;;;;;;;;;;;;;21.48;40.26;101953.84;5077852;28;4214;-69
2022/03/04 12:07:37;;;;;;;;;;;;;;;21.51;40.14;101949.72;5075619;28;4000;-71
2022/03/04 12:10:07;;;;;;;;;;;;;;;21.57;40.50;101943.56;5078124;28;4049;-76
2022/03/04 12:12:33;;;;;;;;;;;;;;;21.54;40.23;101939.81;5071436;28;4197;-68
2022/03/04 12:15:15;;;;;;;;;;;;;;;21.48;40.27;101943.06;5072820;28;4182;-70
2022/03/04 12:18:05;;;;;;;;;;;;;;;21.27;40.67;101941.09;5076338;28;4172;-71
2022/03/04 12:20:37;;;;;;;;;;;;;;;21.07;40.79;101931.22;5077196;28;4724;-71
2022/03/04 12:23:07;;;;;;;;;;;;;;;21.03;41.31;101933.88;5078011;28;4060;-70
2022/03/04 12:25:52;;;;;;;;;;;;;;;21.01;41.72;101930.88;5076533;28;4211;-71
2022/03/04 12:28:19;;;;;;;;;;;;;;;21.01;41.23;101925.13;5077090;28;4321;-70
2022/03/04 12:31:01;;;;;;;;;;;;;;;21.00;41.39;101929.34;5075749;28;4172;-70
2022/03/04 12:33:28;;;;;;;;;;;;;;;20.99;41.68;101922.09;5074931;28;6225;-74
2022/03/04 12:35:57;;;;;;;;;;;;;;;20.96;41.87;101923.34;5074851;28;5132;-73
2022/03/04 12:38:24;;;;;;;;;;;;;;;20.92;40.83;101918.84;5076281;28;4314;-75
2022/03/04 12:40:51;;;;;;;;;;;;;;;20.83;41.05;101919.72;5076349;28;4190;-73
2022/03/04 12:43:17;;;;;;;;;;;;;;;20.77;40.45;101925.09;5077803;28;5107;-75
2022/03/04 12:45:44;;;;;;;;;;;;;;;20.84;40.65;101915.47;5079620;28;4187;-72
2022/03/04 12:48:10;;;;;;;;;;;;;;;20.88;41.28;101918.59;5061462;28;4283;-72
2022/03/04 12:50:36;;;;;;;;;;;;;;;20.92;41.18;101918.84;5078928;28;4180;-69
2022/03/04 12:53:19;;;;;;;;;;;;;;;20.36;37.34;101913.91;5073649;28;5224;-71